Time,TemperatureF,DewpointF,PressureIn,WindDirection,WindDirectionDegrees,WindSpeedMPH,WindSpeedGustMPH,Humidity,HourlyPrecipIn,Conditions,Clouds,dailyrainin,SoftwareType,DateUTC
2013-08-06 00:01:00,72.1,65.9,29.98,WSW,252,0.0,0.0,81,0.00,,,0.00,LWC V2.00 B2112,2013-08-06 04:01:00,
2013-08-06 00:06:00,72.1,65.9,29.98,WSW,252,0.0,0.0,81,0.00,,,0.00,LWC V2.00 B2112,2013-08-06 04:06:00,
2013-08-06 00:11:00,72.3,65.8,29.98,WSW,252,0.0,0.0,80,0.00,,,0.00,LWC V2.00 B2112,2013-08-06 04:11:00,
2013-08-06 00:16:00,72.3,65.8,29.98,WSW,252,0.0,0.0,80,0.00,,,0.00,LWC V2.00 B2112,2013-08-06 04:16:00,
2013-08-06 00:21:00,72.5,65.2,29.98,WSW,252,0.0,0.0,78,0.00,,,0.00,LWC V2.00 B2112,2013-08-06 04:21:00,
2013-08-06 00:26:00,72.7,65.8,29.98,WSW,252,0.0,0.0,79,0.00,,,0.00,LWC V2.00 B2112,2013-08-06 04:26:00,
2013-08-06 00:31:00,72.7,65.4,29.98,WSW,252,0.0,0.0,78,0.00,,,0.00,LWC V2.00 B2112,2013-08-06 04:31:00,
2013-08-06 00:36:00,72.8,65.5,29.98,WSW,252,0.0,0.0,78,0.00,,,0.00,LWC V2.00 B2112,2013-08-06 04:36:00,
2013-08-06 00:41:00,72.8,65.5,29.98,WSW,252,0.0,0.0,78,0.00,,,0.00,LWC V2.00 B2112,2013-08-06 04:41:00,
2013-08-06 00:46:00,72.8,65.5,29.98,WSW,252,0.0,0.0,78,0.00,,,0.00,LWC V2.00 B2112,2013-08-06 04:46:00,
2013-08-06 00:51:00,73.0,65.7,29.98,WSW,252,0.0,0.0,78,0.00,,,0.00,LWC V2.00 B2112,2013-08-06 04:51:00,
2013-08-06 00:56:00,73.0,65.7,29.97,WSW,252,0.0,0.0,78,0.00,,,0.00,LWC V2.00 B2112,2013-08-06 04:56:00,
2013-08-06 01:01:00,73.0,65.7,29.97,WSW,252,0.0,0.0,78,0.00,,,0.00,LWC V2.00 B2112,2013-08-06 05:01:00,
2013-08-06 01:06:00,72.8,65.5,29.97,WSW,252,0.0,0.0,78,0.00,,,0.00,LWC V2.00 B2112,2013-08-06 05:06:00,
2013-08-06 01:11:00,72.8,65.9,29.98,WSW,252,0.0,0.0,79,0.00,,,0.00,LWC V2.00 B2112,2013-08-06 05:11:00,
2013-08-06 01:16:00,72.8,65.5,29.98,WSW,252,0.0,0.0,78,0.00,,,0.00,LWC V2.00 B2112,2013-08-06 05:16:00,
2013-08-06 01:21:00,72.7,65.4,29.98,WSW,252,0.0,0.0,78,0.00,,,0.00,LWC V2.00 B2112,2013-08-06 05:21:00,
2013-08-06 01:26:00,72.7,65.4,29.98,WSW,252,0.0,0.0,78,0.00,,,0.00,LWC V2.00 B2112,2013-08-06 05:26:00,
2013-08-06 01:31:00,72.7,65.8,29.98,WSW,252,0.0,0.0,79,0.00,,,0.00,LWC V2.00 B2112,2013-08-06 05:31:00,
2013-08-06 01:36:00,72.5,65.6,29.98,WSW,252,0.0,0.0,79,0.00,,,0.00,LWC V2.00 B2112,2013-08-06 05:36:00,
2013-08-06 01:41:00,72.5,66.0,29.97,WSW,252,0.0,0.0,80,0.00,,,0.00,LWC V2.00 B2112,2013-08-06 05:41:00,
2013-08-06 01:46:00,72.5,66.0,29.97,WSW,252,0.0,0.0,80,0.00,,,0.00,LWC V2.00 B2112,2013-08-06 05:46:00,
2013-08-06 01:51:00,72.5,65.6,29.97,WSW,252,0.0,0.0,79,0.00,,,0.00,LWC V2.00 B2112,2013-08-06 05:51:00,
2013-08-06 01:56:00,72.3,65.4,29.97,WSW,252,0.0,0.0,79,0.00,,,0.00,LWC V2.00 B2112,2013-08-06 05:56:00,
2013-08-06 02:01:00,72.3,65.8,29.97,WSW,252,0.0,0.0,80,0.00,,,0.00,LWC V2.00 B2112,2013-08-06 06:01:00,
2013-08-06 02:06:00,72.3,65.4,29.97,WSW,252,0.0,0.0,79,0.00,,,0.00,LWC V2.00 B2112,2013-08-06 06:06:00,
2013-08-06 02:11:00,72.1,65.2,29.97,WSW,252,0.0,0.0,79,0.00,,,0.00,LWC V2.00 B2112,2013-08-06 06:11:00,
2013-08-06 02:16:00,72.1,65.2,29.97,WSW,252,0.0,0.0,79,0.00,,,0.00,LWC V2.00 B2112,2013-08-06 06:16:00,
2013-08-06 02:21:00,72.0,65.1,29.97,WSW,252,0.0,0.0,79,0.00,,,0.00,LWC V2.00 B2112,2013-08-06 06:21:00,
2013-08-06 02:26:00,71.8,64.9,29.97,WSW,252,0.0,0.0,79,0.00,,,0.00,LWC V2.00 B2112,2013-08-06 06:26:00,
2013-08-06 02:31:00,71.8,65.3,29.97,WSW,252,0.0,0.0,80,0.00,,,0.00,LWC V2.00 B2112,2013-08-06 06:31:00,
2013-08-06 02:36:00,71.6,65.1,29.97,WSW,252,0.0,0.0,80,0.00,,,0.00,LWC V2.00 B2112,2013-08-06 06:36:00,
2013-08-06 02:41:00,71.6,65.1,29.97,WSW,252,0.0,0.0,80,0.00,,,0.00,LWC V2.00 B2112,2013-08-06 06:41:00,
2013-08-06 02:46:00,71.6,65.1,29.97,WSW,252,0.0,0.0,80,0.00,,,0.00,LWC V2.00 B2112,2013-08-06 06:46:00,
2013-08-06 02:51:00,71.6,65.1,29.97,WSW,252,0.0,0.0,80,0.00,,,0.00,LWC V2.00 B2112,2013-08-06 06:51:00,
2013-08-06 02:56:00,71.5,65.0,29.96,WSW,252,0.0,0.0,80,0.00,,,0.00,LWC V2.00 B2112,2013-08-06 06:56:00,
2013-08-06 03:01:00,71.5,65.0,29.96,WSW,252,0.0,0.0,80,0.00,,,0.00,LWC V2.00 B2112,2013-08-06 07:01:00,
2013-08-06 03:06:00,71.5,65.0,29.96,WSW,252,0.0,0.0,80,0.00,,,0.00,LWC V2.00 B2112,2013-08-06 07:06:00,
2013-08-06 03:11:00,71.5,65.4,29.96,WSW,252,0.0,0.0,81,0.00,,,0.00,LWC V2.00 B2112,2013-08-06 07:11:00,
2013-08-06 03:16:00,71.5,65.4,29.96,WSW,252,0.0,0.0,81,0.00,,,0.00,LWC V2.00 B2112,2013-08-06 07:16:00,
2013-08-06 03:21:00,71.5,65.4,29.96,WSW,252,0.0,0.0,81,0.00,,,0.00,LWC V2.00 B2112,2013-08-06 07:21:00,
2013-08-06 03:26:00,71.5,65.0,29.96,WSW,252,0.0,0.0,80,0.00,,,0.00,LWC V2.00 B2112,2013-08-06 07:26:00,
2013-08-06 03:31:00,71.5,66.1,29.96,WSW,252,0.0,0.0,83,0.00,,,0.00,LWC V2.00 B2112,2013-08-06 07:31:00,
2013-08-06 03:36:00,71.3,65.5,29.96,WSW,252,0.0,0.0,82,0.00,,,0.00,LWC V2.00 B2112,2013-08-06 07:36:00,
2013-08-06 03:41:00,71.1,65.3,29.96,WSW,252,0.0,0.0,82,0.00,,,0.00,LWC V2.00 B2112,2013-08-06 07:41:00,
2013-08-06 03:46:00,71.1,64.6,29.96,WSW,252,0.0,0.0,80,0.00,,,0.00,LWC V2.00 B2112,2013-08-06 07:46:00,
2013-08-06 03:51:00,70.9,64.8,29.96,WSW,252,0.0,0.0,81,0.00,,,0.00,LWC V2.00 B2112,2013-08-06 07:51:00,
2013-08-06 03:56:00,70.9,65.5,29.96,WSW,252,0.0,0.0,83,0.00,,,0.00,LWC V2.00 B2112,2013-08-06 07:56:00,
2013-08-06 04:01:00,70.9,65.8,29.96,WSW,252,0.0,0.0,84,0.00,,,0.00,LWC V2.00 B2112,2013-08-06 08:01:00,
2013-08-06 04:06:00,70.9,65.5,29.96,WSW,252,0.0,0.0,83,0.00,,,0.00,LWC V2.00 B2112,2013-08-06 08:06:00,
2013-08-06 04:11:00,70.8,64.7,29.96,WSW,252,0.0,0.0,81,0.00,,,0.00,LWC V2.00 B2112,2013-08-06 08:11:00,
2013-08-06 04:16:00,70.6,64.8,29.96,WSW,252,0.0,0.0,82,0.00,,,0.00,LWC V2.00 B2112,2013-08-06 08:16:00,
2013-08-06 04:21:00,70.6,65.2,29.96,WSW,252,0.0,0.0,83,0.00,,,0.00,LWC V2.00 B2112,2013-08-06 08:21:00,
2013-08-06 04:26:00,70.4,64.6,29.96,WSW,252,0.0,0.0,82,0.00,,,0.00,LWC V2.00 B2112,2013-08-06 08:26:00,
2013-08-06 04:31:00,70.4,64.6,29.96,WSW,252,0.0,0.0,82,0.00,,,0.00,LWC V2.00 B2112,2013-08-06 08:31:00,
2013-08-06 04:36:00,70.4,64.6,29.96,WSW,252,0.0,0.0,82,0.00,,,0.00,LWC V2.00 B2112,2013-08-06 08:36:00,
2013-08-06 04:41:00,70.3,64.5,29.96,WSW,252,0.0,0.0,82,0.00,,,0.00,LWC V2.00 B2112,2013-08-06 08:41:00,
2013-08-06 04:46:00,70.3,64.2,29.96,WSW,252,0.0,0.0,81,0.00,,,0.00,LWC V2.00 B2112,2013-08-06 08:46:00,
2013-08-06 04:51:00,70.1,63.6,29.96,WSW,252,0.0,0.0,80,0.00,,,0.00,LWC V2.00 B2112,2013-08-06 08:51:00,
2013-08-06 04:56:00,70.1,64.0,29.96,WSW,252,0.0,0.0,81,0.00,,,0.00,LWC V2.00 B2112,2013-08-06 08:56:00,
2013-08-06 05:01:00,70.1,64.0,29.96,WSW,252,0.0,0.0,81,0.00,,,0.00,LWC V2.00 B2112,2013-08-06 09:01:00,
2013-08-06 05:06:00,70.1,64.0,29.96,WSW,252,0.0,0.0,81,0.00,,,0.00,LWC V2.00 B2112,2013-08-06 09:06:00,
2013-08-06 05:11:00,70.1,64.3,29.97,WSW,252,0.0,0.0,82,0.00,,,0.01,LWC V2.00 B2112,2013-08-06 09:11:00,
2013-08-06 05:16:00,70.3,65.2,29.97,WSW,252,0.0,0.0,84,0.14,,,0.02,LWC V2.00 B2112,2013-08-06 09:16:00,
2013-08-06 05:21:00,70.1,65.7,29.97,WSW,252,0.0,0.0,86,0.25,,,0.04,LWC V2.00 B2112,2013-08-06 09:21:00,
2013-08-06 05:26:00,69.8,65.7,29.99,WSW,252,0.0,0.0,87,0.14,,,0.05,LWC V2.00 B2112,2013-08-06 09:26:00,
2013-08-06 05:31:00,69.6,66.2,29.99,WSW,252,0.0,0.0,89,0.15,,,0.06,LWC V2.00 B2112,2013-08-06 09:31:00,
2013-08-06 05:36:00,69.3,66.2,29.99,WSW,252,0.0,0.0,90,0.13,,,0.07,LWC V2.00 B2112,2013-08-06 09:36:00,
2013-08-06 05:41:00,68.9,65.8,29.99,WSW,252,0.0,0.0,90,0.12,,,0.08,LWC V2.00 B2112,2013-08-06 09:41:00,
2013-08-06 05:46:00,68.6,65.5,29.99,WSW,252,0.0,0.0,90,0.07,,,0.09,LWC V2.00 B2112,2013-08-06 09:46:00,
2013-08-06 05:51:00,68.4,65.7,29.99,WSW,252,0.0,0.0,91,0.07,,,0.09,LWC V2.00 B2112,2013-08-06 09:51:00,
2013-08-06 05:56:00,68.4,66.0,30.00,WSW,252,0.0,0.0,92,0.07,,,0.10,LWC V2.00 B2112,2013-08-06 09:56:00,
2013-08-06 06:01:00,68.3,65.9,30.00,WSW,252,0.0,0.0,92,0.07,,,0.10,LWC V2.00 B2112,2013-08-06 10:01:00,
2013-08-06 06:06:00,68.3,66.2,30.00,WSW,252,0.0,0.0,93,0.05,,,0.10,LWC V2.00 B2112,2013-08-06 10:06:00,
2013-08-06 06:11:00,68.3,66.2,30.00,WSW,252,0.0,0.0,93,0.00,,,0.10,LWC V2.00 B2112,2013-08-06 10:11:00,
2013-08-06 06:16:00,68.3,66.5,30.00,WSW,252,0.0,0.0,94,0.00,,,0.10,LWC V2.00 B2112,2013-08-06 10:16:00,
2013-08-06 06:21:00,68.1,66.3,30.00,WSW,252,0.0,0.0,94,0.00,,,0.10,LWC V2.00 B2112,2013-08-06 10:21:00,
2013-08-06 06:26:00,68.1,66.3,30.00,WSW,252,0.0,0.0,94,0.00,,,0.10,LWC V2.00 B2112,2013-08-06 10:26:00,
2013-08-06 06:31:00,68.1,66.3,30.00,WSW,252,0.0,0.0,94,0.00,,,0.10,LWC V2.00 B2112,2013-08-06 10:31:00,
2013-08-06 06:36:00,68.1,66.6,30.00,WSW,252,0.0,0.0,95,0.00,,,0.10,LWC V2.00 B2112,2013-08-06 10:36:00,
2013-08-06 06:41:00,67.9,66.4,30.00,WSW,252,0.0,0.0,95,0.00,,,0.10,LWC V2.00 B2112,2013-08-06 10:41:00,
2013-08-06 06:46:00,67.9,66.4,30.00,WSW,252,0.0,0.0,95,0.00,,,0.10,LWC V2.00 B2112,2013-08-06 10:46:00,
2013-08-06 06:51:00,67.9,66.7,30.00,WSW,252,0.0,0.0,96,0.00,,,0.11,LWC V2.00 B2112,2013-08-06 10:51:00,
2013-08-06 06:56:00,67.9,66.7,30.00,WSW,252,0.0,0.0,96,0.00,,,0.11,LWC V2.00 B2112,2013-08-06 10:56:00,
2013-08-06 07:01:00,67.8,66.6,30.00,WSW,252,0.0,0.0,96,0.00,,,0.11,LWC V2.00 B2112,2013-08-06 11:01:00,
2013-08-06 07:06:00,67.8,66.6,30.00,WSW,252,0.0,0.0,96,0.04,,,0.12,LWC V2.00 B2112,2013-08-06 11:06:00,
2013-08-06 07:11:00,67.8,66.6,29.99,WSW,252,0.0,0.0,96,0.04,,,0.12,LWC V2.00 B2112,2013-08-06 11:11:00,
2013-08-06 07:16:00,67.9,66.7,29.99,WSW,252,0.0,0.0,96,0.04,,,0.12,LWC V2.00 B2112,2013-08-06 11:16:00,
2013-08-06 07:21:00,67.9,67.0,29.99,WSW,252,0.0,0.0,97,0.04,,,0.12,LWC V2.00 B2112,2013-08-06 11:21:00,
2013-08-06 07:26:00,67.9,67.0,30.00,WSW,252,0.0,0.0,97,0.00,,,0.12,LWC V2.00 B2112,2013-08-06 11:26:00,
2013-08-06 07:31:00,67.9,67.0,30.00,WSW,252,0.0,0.0,97,0.00,,,0.12,LWC V2.00 B2112,2013-08-06 11:31:00,
2013-08-06 07:36:00,68.1,67.2,30.00,WSW,252,0.0,0.0,97,0.00,,,0.12,LWC V2.00 B2112,2013-08-06 11:36:00,
2013-08-06 07:41:00,68.1,67.2,30.00,WSW,252,0.0,0.0,97,0.00,,,0.12,LWC V2.00 B2112,2013-08-06 11:41:00,
2013-08-06 07:46:00,68.1,67.2,30.00,WSW,252,0.0,0.0,97,0.00,,,0.12,LWC V2.00 B2112,2013-08-06 11:46:00,
2013-08-06 07:51:00,68.1,67.2,30.00,WSW,252,0.0,0.0,97,0.00,,,0.12,LWC V2.00 B2112,2013-08-06 11:51:00,
2013-08-06 07:56:00,68.3,67.7,30.00,WSW,252,0.0,0.0,98,0.00,,,0.13,LWC V2.00 B2112,2013-08-06 11:56:00,
2013-08-06 08:01:00,68.3,67.7,30.00,WSW,252,0.0,0.0,98,0.00,,,0.13,LWC V2.00 B2112,2013-08-06 12:01:00,
2013-08-06 08:06:00,68.3,67.4,30.00,WSW,252,0.0,0.0,97,0.00,,,0.13,LWC V2.00 B2112,2013-08-06 12:06:00,
2013-08-06 08:11:00,68.3,67.7,30.01,WSW,252,0.0,0.0,98,0.00,,,0.13,LWC V2.00 B2112,2013-08-06 12:11:00,
2013-08-06 08:16:00,68.3,67.7,30.01,WSW,252,0.0,0.0,98,0.00,,,0.13,LWC V2.00 B2112,2013-08-06 12:16:00,
2013-08-06 08:18:00,68.3,67.7,30.01,WSW,252,0.0,0.0,98,0.00,,,0.13,LWC V2.00 B2112,2013-08-06 12:18:00,
2013-08-06 08:23:00,68.3,67.7,30.01,WSW,252,0.0,0.0,98,0.00,,,0.13,LWC V2.00 B2112,2013-08-06 12:23:00,
2013-08-06 08:28:00,68.3,67.7,30.00,WSW,252,0.0,0.0,98,0.00,,,0.00,LWC V2.00 B2112,2013-08-06 12:28:00,
2013-08-06 08:33:00,68.4,67.8,30.00,WSW,252,0.0,0.0,98,0.00,,,0.00,LWC V2.00 B2112,2013-08-06 12:33:00,
2013-08-06 08:38:00,68.6,68.0,30.00,WSW,252,0.0,0.0,98,0.00,,,0.00,LWC V2.00 B2112,2013-08-06 12:38:00,
2013-08-06 08:43:00,68.6,68.0,30.00,WSW,252,0.0,0.0,98,0.00,,,0.00,LWC V2.00 B2112,2013-08-06 12:43:00,
2013-08-06 08:48:00,68.4,67.8,30.00,WSW,252,0.0,0.0,98,0.00,,,0.00,LWC V2.00 B2112,2013-08-06 12:48:00,
2013-08-06 08:53:00,68.6,68.0,30.00,WSW,252,0.0,0.0,98,0.00,,,0.00,LWC V2.00 B2112,2013-08-06 12:53:00,
2013-08-06 08:58:00,68.6,68.0,30.00,WSW,252,0.0,0.0,98,0.00,,,0.00,LWC V2.00 B2112,2013-08-06 12:58:00,
2013-08-06 09:03:00,68.6,68.0,30.00,WSW,252,0.0,0.0,98,0.00,,,0.00,LWC V2.00 B2112,2013-08-06 13:03:00,
2013-08-06 09:08:00,68.6,68.3,30.00,WSW,252,0.0,0.0,99,0.00,,,0.00,LWC V2.00 B2112,2013-08-06 13:08:00,
2013-08-06 09:13:00,68.6,68.0,30.00,WSW,252,0.0,0.0,98,0.00,,,0.00,LWC V2.00 B2112,2013-08-06 13:13:00,
2013-08-06 09:18:00,68.8,68.5,30.00,WSW,252,0.0,0.0,99,0.00,,,0.00,LWC V2.00 B2112,2013-08-06 13:18:00,
2013-08-06 09:23:00,68.8,68.5,30.00,WSW,252,0.0,0.0,99,0.00,,,0.00,LWC V2.00 B2112,2013-08-06 13:23:00,
2013-08-06 09:28:00,68.9,68.6,30.00,WSW,252,0.0,0.0,99,0.00,,,0.00,LWC V2.00 B2112,2013-08-06 13:28:00,
2013-08-06 09:33:00,69.1,68.8,30.00,WSW,252,0.0,0.0,99,0.00,,,0.00,LWC V2.00 B2112,2013-08-06 13:33:00,
2013-08-06 09:38:00,69.3,69.0,30.00,WSW,252,0.0,0.0,99,0.00,,,0.00,LWC V2.00 B2112,2013-08-06 13:38:00,
2013-08-06 09:43:00,69.6,69.3,30.00,WSW,252,0.0,0.0,99,0.00,,,0.00,LWC V2.00 B2112,2013-08-06 13:43:00,
2013-08-06 09:48:00,69.8,69.8,30.00,WSW,252,0.0,0.0,100,0.00,,,0.00,LWC V2.00 B2112,2013-08-06 13:48:00,
2013-08-06 09:53:00,70.1,70.1,30.00,WSW,252,0.0,0.0,100,0.00,,,0.00,LWC V2.00 B2112,2013-08-06 13:53:00,
2013-08-06 09:59:00,70.4,70.4,30.00,WSW,252,0.0,0.0,100,0.00,,,0.00,LWC V2.00 B2112,2013-08-06 13:59:00,
2013-08-06 10:04:00,70.6,70.6,30.00,WSW,252,0.0,0.0,100,0.00,,,0.00,LWC V2.00 B2112,2013-08-06 14:04:00,
2013-08-06 10:09:00,70.8,70.5,30.00,WSW,252,0.0,0.0,99,0.00,,,0.00,LWC V2.00 B2112,2013-08-06 14:09:00,
2013-08-06 10:14:00,70.9,70.9,30.00,WSW,252,0.0,0.0,100,0.00,,,0.00,LWC V2.00 B2112,2013-08-06 14:14:00,
2013-08-06 10:19:00,71.3,71.3,30.00,WSW,252,0.0,0.0,100,0.00,,,0.00,LWC V2.00 B2112,2013-08-06 14:19:00,
2013-08-06 10:24:00,71.1,70.8,30.00,WSW,252,0.0,0.0,99,0.00,,,0.00,LWC V2.00 B2112,2013-08-06 14:24:00,
2013-08-06 10:29:00,70.9,70.3,30.00,WSW,252,0.0,0.0,98,0.00,,,0.00,LWC V2.00 B2112,2013-08-06 14:29:00,
2013-08-06 10:34:00,70.9,70.6,30.00,WSW,252,0.0,0.0,99,0.00,,,0.00,LWC V2.00 B2112,2013-08-06 14:34:00,
2013-08-06 10:39:00,71.1,70.8,30.00,WSW,252,0.0,0.0,99,0.00,,,0.00,LWC V2.00 B2112,2013-08-06 14:39:00,
2013-08-06 10:44:00,71.3,71.0,30.00,WSW,252,0.0,0.0,99,0.00,,,0.00,LWC V2.00 B2112,2013-08-06 14:44:00,
2013-08-06 10:49:00,71.3,70.7,30.00,WSW,252,0.0,0.0,98,0.00,,,0.00,LWC V2.00 B2112,2013-08-06 14:49:00,
2013-08-06 10:54:00,71.6,71.0,30.00,WSW,252,0.0,0.0,98,0.00,,,0.00,LWC V2.00 B2112,2013-08-06 14:54:00,
2013-08-06 10:59:00,72.0,71.7,30.00,WSW,252,0.0,0.0,99,0.00,,,0.00,LWC V2.00 B2112,2013-08-06 14:59:00,
2013-08-06 11:04:00,72.3,71.7,30.00,WSW,252,0.0,0.0,98,0.00,,,0.00,LWC V2.00 B2112,2013-08-06 15:04:00,
2013-08-06 11:09:00,72.7,72.1,30.00,WSW,252,0.0,0.0,98,0.00,,,0.00,LWC V2.00 B2112,2013-08-06 15:09:00,
2013-08-06 11:14:00,72.8,71.3,30.01,WSW,252,0.0,0.0,95,0.00,,,0.00,LWC V2.00 B2112,2013-08-06 15:14:00,
2013-08-06 11:19:00,72.8,70.3,30.01,WSW,252,0.0,0.0,92,0.00,,,0.00,LWC V2.00 B2112,2013-08-06 15:19:00,
2013-08-06 11:24:00,73.0,69.9,30.01,WSW,252,0.0,0.0,90,0.00,,,0.00,LWC V2.00 B2112,2013-08-06 15:24:00,
2013-08-06 11:29:00,73.3,70.2,30.01,WSW,252,0.0,0.0,90,0.00,,,0.00,LWC V2.00 B2112,2013-08-06 15:29:00,
2013-08-06 11:34:00,73.7,70.6,30.01,WSW,252,0.0,0.0,90,0.00,,,0.00,LWC V2.00 B2112,2013-08-06 15:34:00,
2013-08-06 11:39:00,73.9,70.8,30.01,WSW,252,0.0,0.0,90,0.00,,,0.00,LWC V2.00 B2112,2013-08-06 15:39:00,
2013-08-06 11:44:00,73.9,70.4,30.02,WSW,252,0.0,0.0,89,0.00,,,0.00,LWC V2.00 B2112,2013-08-06 15:44:00,
2013-08-06 11:49:00,73.9,70.8,30.02,WSW,252,0.0,0.0,90,0.00,,,0.00,LWC V2.00 B2112,2013-08-06 15:49:00,
2013-08-06 11:54:00,74.0,71.2,30.02,WSW,252,0.0,0.0,91,0.00,,,0.00,LWC V2.00 B2112,2013-08-06 15:54:00,
2013-08-06 11:59:00,74.2,71.4,30.01,WSW,252,0.0,0.0,91,0.00,,,0.00,LWC V2.00 B2112,2013-08-06 15:59:00,
2013-08-06 12:04:00,74.4,71.9,30.01,WSW,252,0.0,0.0,92,0.00,,,0.00,LWC V2.00 B2112,2013-08-06 16:04:00,
2013-08-06 12:09:00,74.6,72.1,30.01,WSW,252,0.0,0.0,92,0.00,,,0.00,LWC V2.00 B2112,2013-08-06 16:09:00,
2013-08-06 12:14:00,74.7,71.9,30.01,WSW,252,0.0,0.0,91,0.00,,,0.00,LWC V2.00 B2112,2013-08-06 16:14:00,
2013-08-06 12:19:00,74.7,71.2,30.01,WSW,252,0.0,0.0,89,0.00,,,0.00,LWC V2.00 B2112,2013-08-06 16:19:00,
2013-08-06 12:24:00,74.9,71.4,30.01,WSW,252,0.0,0.0,89,0.00,,,0.00,LWC V2.00 B2112,2013-08-06 16:24:00,
2013-08-06 12:29:00,74.9,70.1,30.01,WSW,252,0.0,0.0,85,0.00,,,0.00,LWC V2.00 B2112,2013-08-06 16:29:00,
2013-08-06 12:34:00,75.1,70.3,30.01,WSW,252,0.0,2.0,85,0.00,,,0.00,LWC V2.00 B2112,2013-08-06 16:34:00,
2013-08-06 12:39:00,75.6,70.4,30.01,WSW,252,0.0,0.0,84,0.00,,,0.00,LWC V2.00 B2112,2013-08-06 16:39:00,
2013-08-06 12:44:00,75.8,70.6,30.00,WSW,252,0.0,0.0,84,0.00,,,0.00,LWC V2.00 B2112,2013-08-06 16:44:00,
2013-08-06 12:49:00,76.5,70.9,30.00,WSW,252,0.0,0.0,83,0.00,,,0.00,LWC V2.00 B2112,2013-08-06 16:49:00,
2013-08-06 12:54:00,76.8,70.5,30.00,WSW,252,0.0,2.0,81,0.00,,,0.00,LWC V2.00 B2112,2013-08-06 16:54:00,
2013-08-06 12:59:00,77.6,69.4,30.00,WSW,252,0.0,2.0,76,0.00,,,0.00,LWC V2.00 B2112,2013-08-06 16:59:00,
2013-08-06 13:04:00,78.1,71.0,30.00,WSW,252,0.0,0.0,79,0.00,,,0.00,LWC V2.00 B2112,2013-08-06 17:04:00,
2013-08-06 13:09:00,78.1,70.7,30.00,WSW,252,0.0,0.0,78,0.00,,,0.00,LWC V2.00 B2112,2013-08-06 17:09:00,
2013-08-06 13:14:00,77.9,71.2,30.00,WSW,252,0.0,0.0,80,0.00,,,0.00,LWC V2.00 B2112,2013-08-06 17:14:00,
2013-08-06 13:19:00,77.7,69.9,30.00,WSW,252,0.0,0.0,77,0.00,,,0.00,LWC V2.00 B2112,2013-08-06 17:19:00,
2013-08-06 13:24:00,77.7,69.9,30.00,WSW,252,0.0,0.0,77,0.00,,,0.00,LWC V2.00 B2112,2013-08-06 17:24:00,
2013-08-06 13:29:00,77.6,69.8,30.00,WSW,252,0.0,0.0,77,0.00,,,0.00,LWC V2.00 B2112,2013-08-06 17:29:00,
2013-08-06 13:34:00,77.6,70.6,30.00,WSW,252,0.0,0.0,79,0.00,,,0.00,LWC V2.00 B2112,2013-08-06 17:34:00,
2013-08-06 13:39:00,77.4,70.4,30.00,WSW,252,0.0,0.0,79,0.00,,,0.00,LWC V2.00 B2112,2013-08-06 17:39:00,
2013-08-06 13:44:00,77.4,69.6,30.00,WSW,252,0.0,0.0,77,0.00,,,0.00,LWC V2.00 B2112,2013-08-06 17:44:00,
2013-08-06 13:49:00,77.2,69.8,30.00,WSW,252,0.0,0.0,78,0.00,,,0.00,LWC V2.00 B2112,2013-08-06 17:49:00,
2013-08-06 13:54:00,77.2,69.8,30.00,WSW,252,0.0,0.0,78,0.00,,,0.00,LWC V2.00 B2112,2013-08-06 17:54:00,
2013-08-06 13:59:00,77.4,70.7,29.99,WSW,252,0.0,0.0,80,0.00,,,0.00,LWC V2.00 B2112,2013-08-06 17:59:00,
2013-08-06 14:04:00,77.4,70.0,29.99,WSW,252,0.0,0.0,78,0.00,,,0.00,LWC V2.00 B2112,2013-08-06 18:04:00,
2013-08-06 14:09:00,77.4,70.4,29.99,WSW,252,0.0,0.0,79,0.00,,,0.00,LWC V2.00 B2112,2013-08-06 18:09:00,
2013-08-06 14:14:00,77.6,70.2,29.99,WSW,252,0.0,0.0,78,0.00,,,0.00,LWC V2.00 B2112,2013-08-06 18:14:00,
2013-08-06 14:19:00,77.9,71.2,29.99,WSW,252,0.0,1.0,80,0.00,,,0.00,LWC V2.00 B2112,2013-08-06 18:19:00,
2013-08-06 14:24:00,78.1,69.9,29.99,WSW,252,0.0,0.0,76,0.00,,,0.00,LWC V2.00 B2112,2013-08-06 18:24:00,
2013-08-06 14:29:00,78.3,70.1,29.99,WSW,252,0.0,0.0,76,0.00,,,0.00,LWC V2.00 B2112,2013-08-06 18:29:00,
2013-08-06 14:34:00,78.5,71.1,29.99,WSW,252,0.0,0.0,78,0.00,,,0.00,LWC V2.00 B2112,2013-08-06 18:34:00,
2013-08-06 14:39:00,78.5,70.7,29.99,WSW,252,0.0,0.0,77,0.00,,,0.00,LWC V2.00 B2112,2013-08-06 18:39:00,
2013-08-06 14:44:00,78.5,70.7,29.98,WSW,252,0.0,1.0,77,0.00,,,0.00,LWC V2.00 B2112,2013-08-06 18:44:00,
2013-08-06 14:49:00,78.5,70.7,29.98,WSW,252,0.0,0.0,77,0.00,,,0.00,LWC V2.00 B2112,2013-08-06 18:49:00,
2013-08-06 14:54:00,78.5,71.1,29.98,WSW,251,0.0,1.0,78,0.00,,,0.00,LWC V2.00 B2112,2013-08-06 18:54:00,
2013-08-06 14:59:00,78.3,70.1,29.99,WSW,252,0.0,0.0,76,0.00,,,0.00,LWC V2.00 B2112,2013-08-06 18:59:00,
2013-08-06 15:04:00,78.3,70.1,29.99,WSW,252,0.0,0.0,76,0.00,,,0.00,LWC V2.00 B2112,2013-08-06 19:04:00,
2013-08-06 15:09:00,78.1,69.9,29.99,WSW,252,0.0,0.0,76,0.00,,,0.00,LWC V2.00 B2112,2013-08-06 19:09:00,
2013-08-06 15:14:00,78.1,71.0,29.99,WSW,252,0.0,0.0,79,0.00,,,0.00,LWC V2.00 B2112,2013-08-06 19:14:00,
2013-08-06 15:19:00,77.9,70.5,29.99,WSW,251,0.0,0.0,78,0.00,,,0.00,LWC V2.00 B2112,2013-08-06 19:19:00,
2013-08-06 15:24:00,77.9,70.1,29.99,WSW,252,0.0,0.0,77,0.00,,,0.00,LWC V2.00 B2112,2013-08-06 19:24:00,
2013-08-06 15:29:00,77.9,69.7,29.99,WSW,252,0.0,1.0,76,0.00,,,0.00,LWC V2.00 B2112,2013-08-06 19:29:00,
2013-08-06 15:34:00,77.9,70.1,29.99,WSW,252,0.0,0.0,77,0.00,,,0.00,LWC V2.00 B2112,2013-08-06 19:34:00,
2013-08-06 15:39:00,78.1,71.0,29.99,WSW,252,0.0,0.0,79,0.00,,,0.00,LWC V2.00 B2112,2013-08-06 19:39:00,
2013-08-06 15:44:00,78.3,71.2,29.99,WSW,252,0.0,0.0,79,0.00,,,0.00,LWC V2.00 B2112,2013-08-06 19:44:00,
2013-08-06 15:49:00,78.5,71.1,29.99,WSW,252,0.0,0.0,78,0.00,,,0.00,LWC V2.00 B2112,2013-08-06 19:49:00,
2013-08-06 15:54:00,78.5,72.2,29.99,WSW,252,0.0,0.0,81,0.00,,,0.00,LWC V2.00 B2112,2013-08-06 19:54:00,
2013-08-06 15:59:00,78.5,71.8,29.98,WSW,252,0.0,0.0,80,0.00,,,0.00,LWC V2.00 B2112,2013-08-06 19:59:00,
2013-08-06 16:04:00,78.5,71.8,29.98,WSW,251,0.0,0.0,80,0.00,,,0.00,LWC V2.00 B2112,2013-08-06 20:04:00,
2013-08-06 16:09:00,78.3,71.6,29.98,WSW,252,0.0,1.0,80,0.00,,,0.00,LWC V2.00 B2112,2013-08-06 20:09:00,
2013-08-06 16:14:00,78.3,71.6,29.99,WSW,252,0.0,0.0,80,0.00,,,0.00,LWC V2.00 B2112,2013-08-06 20:14:00,
2013-08-06 16:19:00,78.1,71.8,29.99,WSW,251,0.0,0.0,81,0.00,,,0.00,LWC V2.00 B2112,2013-08-06 20:19:00,
2013-08-06 16:24:00,78.1,72.5,29.99,WSW,252,0.0,0.0,83,0.00,,,0.00,LWC V2.00 B2112,2013-08-06 20:24:00,
2013-08-06 16:29:00,77.9,72.3,29.98,WSW,252,0.0,0.0,83,0.00,,,0.00,LWC V2.00 B2112,2013-08-06 20:29:00,
2013-08-06 16:34:00,77.7,72.1,29.98,WSW,251,0.0,0.0,83,0.00,,,0.00,LWC V2.00 B2112,2013-08-06 20:34:00,
2013-08-06 16:39:00,77.7,72.5,29.98,WSW,251,0.0,0.0,84,0.00,,,0.00,LWC V2.00 B2112,2013-08-06 20:39:00,
2013-08-06 16:44:00,77.6,72.7,29.99,WSW,252,0.0,0.0,85,0.00,,,0.00,LWC V2.00 B2112,2013-08-06 20:44:00,
2013-08-06 16:49:00,77.4,72.2,29.99,WSW,252,0.0,0.0,84,0.00,,,0.00,LWC V2.00 B2112,2013-08-06 20:49:00,
2013-08-06 16:54:00,77.2,71.3,29.99,WSW,252,0.0,0.0,82,0.00,,,0.00,LWC V2.00 B2112,2013-08-06 20:54:00,
2013-08-06 16:59:00,77.2,70.9,29.98,WSW,252,0.0,0.0,81,0.00,,,0.00,LWC V2.00 B2112,2013-08-06 20:59:00,
2013-08-06 17:04:00,77.2,72.0,29.98,WSW,252,0.0,1.0,84,0.00,,,0.00,LWC V2.00 B2112,2013-08-06 21:04:00,
2013-08-06 17:09:00,77.4,71.1,29.98,WSW,252,1.0,1.0,81,0.00,,,0.00,LWC V2.00 B2112,2013-08-06 21:09:00,
2013-08-06 17:14:00,77.4,71.5,29.98,NE,52,0.0,0.0,82,0.00,,,0.00,LWC V2.00 B2112,2013-08-06 21:14:00,
2013-08-06 17:19:00,77.6,71.3,29.98,NE,52,0.0,0.0,81,0.00,,,0.00,LWC V2.00 B2112,2013-08-06 21:19:00,
2013-08-06 17:24:00,77.6,72.0,29.98,NE,52,0.0,0.0,83,0.00,,,0.00,LWC V2.00 B2112,2013-08-06 21:24:00,
2013-08-06 17:29:00,77.6,70.6,29.97,NE,52,0.0,0.0,79,0.00,,,0.00,LWC V2.00 B2112,2013-08-06 21:29:00,
2013-08-06 17:34:00,77.6,71.3,29.97,NE,52,0.0,0.0,81,0.00,,,0.00,LWC V2.00 B2112,2013-08-06 21:34:00,
2013-08-06 17:39:00,77.4,70.0,29.97,NE,52,0.0,0.0,78,0.00,,,0.00,LWC V2.00 B2112,2013-08-06 21:39:00,
2013-08-06 17:44:00,77.4,70.4,29.98,NE,52,0.0,0.0,79,0.00,,,0.00,LWC V2.00 B2112,2013-08-06 21:44:00,
2013-08-06 17:49:00,77.4,70.4,29.98,NE,52,0.0,0.0,79,0.00,,,0.00,LWC V2.00 B2112,2013-08-06 21:49:00,
2013-08-06 17:54:00,77.6,70.9,29.98,NE,52,0.0,0.0,80,0.00,,,0.00,LWC V2.00 B2112,2013-08-06 21:54:00,
2013-08-06 17:59:00,77.6,71.3,29.98,NE,52,0.0,0.0,81,0.00,,,0.00,LWC V2.00 B2112,2013-08-06 21:59:00,
2013-08-06 18:04:00,77.4,71.5,29.98,NE,52,0.0,0.0,82,0.00,,,0.00,LWC V2.00 B2112,2013-08-06 22:04:00,
2013-08-06 18:09:00,77.0,69.2,29.98,NE,52,0.0,0.0,77,0.00,,,0.00,LWC V2.00 B2112,2013-08-06 22:09:00,
2013-08-06 18:14:00,77.0,70.3,29.97,NE,52,0.0,0.0,80,0.00,,,0.00,LWC V2.00 B2112,2013-08-06 22:14:00,
2013-08-06 18:19:00,76.8,70.1,29.97,NE,52,0.0,0.0,80,0.00,,,0.00,LWC V2.00 B2112,2013-08-06 22:19:00,
2013-08-06 18:24:00,76.8,70.5,29.97,NE,52,0.0,0.0,81,0.00,,,0.00,LWC V2.00 B2112,2013-08-06 22:24:00,
2013-08-06 18:29:00,76.7,70.8,29.98,NE,52,0.0,0.0,82,0.00,,,0.00,LWC V2.00 B2112,2013-08-06 22:29:00,
2013-08-06 18:34:00,76.7,71.1,29.98,NE,52,0.0,0.0,83,0.00,,,0.00,LWC V2.00 B2112,2013-08-06 22:34:00,
2013-08-06 18:39:00,76.5,70.6,29.98,NE,52,0.0,0.0,82,0.00,,,0.00,LWC V2.00 B2112,2013-08-06 22:39:00,
2013-08-06 18:44:00,76.5,70.9,29.98,NE,52,0.0,0.0,83,0.00,,,0.00,LWC V2.00 B2112,2013-08-06 22:44:00,
2013-08-06 18:49:00,76.3,71.1,29.98,NE,52,0.0,0.0,84,0.00,,,0.00,LWC V2.00 B2112,2013-08-06 22:49:00,
2013-08-06 18:54:00,76.3,71.1,29.98,NE,52,0.0,0.0,84,0.00,,,0.00,LWC V2.00 B2112,2013-08-06 22:54:00,
2013-08-06 18:59:00,76.1,70.9,29.97,NE,52,0.0,0.0,84,0.00,,,0.00,LWC V2.00 B2112,2013-08-06 22:59:00,
2013-08-06 19:04:00,76.0,70.8,29.97,NE,52,0.0,0.0,84,0.00,,,0.00,LWC V2.00 B2112,2013-08-06 23:04:00,
2013-08-06 19:09:00,76.0,70.8,29.97,NE,52,0.0,0.0,84,0.00,,,0.00,LWC V2.00 B2112,2013-08-06 23:09:00,
2013-08-06 19:15:00,75.8,70.3,29.98,NE,52,0.0,0.0,83,0.00,,,0.00,LWC V2.00 B2112,2013-08-06 23:15:00,
2013-08-06 19:20:00,75.6,69.7,29.98,NE,52,0.0,0.0,82,0.00,,,0.00,LWC V2.00 B2112,2013-08-06 23:20:00,
2013-08-06 19:25:00,75.4,70.2,29.98,NE,52,0.0,0.0,84,0.00,,,0.00,LWC V2.00 B2112,2013-08-06 23:25:00,
2013-08-06 19:30:00,75.4,70.2,29.99,NE,52,0.0,0.0,84,0.00,,,0.00,LWC V2.00 B2112,2013-08-06 23:30:00,
2013-08-06 19:35:00,75.3,70.1,29.99,NE,52,0.0,0.0,84,0.00,,,0.00,LWC V2.00 B2112,2013-08-06 23:35:00,
2013-08-06 19:40:00,75.1,70.3,29.99,NE,52,0.0,0.0,85,0.00,,,0.00,LWC V2.00 B2112,2013-08-06 23:40:00,
2013-08-06 19:45:00,75.1,71.0,29.99,NE,52,0.0,0.0,87,0.00,,,0.00,LWC V2.00 B2112,2013-08-06 23:45:00,
2013-08-06 19:50:00,74.9,70.8,29.99,NE,52,0.0,0.0,87,0.00,,,0.00,LWC V2.00 B2112,2013-08-06 23:50:00,
2013-08-06 19:55:00,74.9,71.1,29.99,NE,52,0.0,0.0,88,0.00,,,0.00,LWC V2.00 B2112,2013-08-06 23:55:00,
2013-08-06 20:00:00,74.7,70.9,29.99,NE,52,0.0,0.0,88,0.00,,,0.00,LWC V2.00 B2112,2013-08-07 00:00:00,
2013-08-06 20:05:00,74.6,70.8,29.99,NE,52,0.0,0.0,88,0.00,,,0.00,LWC V2.00 B2112,2013-08-07 00:05:00,
2013-08-06 20:10:00,74.6,70.8,29.99,NE,52,0.0,0.0,88,0.00,,,0.00,LWC V2.00 B2112,2013-08-07 00:10:00,
2013-08-06 20:15:00,74.2,70.4,30.00,NE,52,0.0,0.0,88,0.00,,,0.00,LWC V2.00 B2112,2013-08-07 00:15:00,
2013-08-06 20:20:00,74.0,70.2,30.00,NE,52,0.0,0.0,88,0.00,,,0.00,LWC V2.00 B2112,2013-08-07 00:20:00,
2013-08-06 20:25:00,74.0,70.5,30.00,NE,52,0.0,0.0,89,0.00,,,0.00,LWC V2.00 B2112,2013-08-07 00:25:00,
2013-08-06 20:30:00,73.9,70.8,30.00,NE,52,0.0,0.0,90,0.00,,,0.00,LWC V2.00 B2112,2013-08-07 00:30:00,
2013-08-06 20:35:00,73.7,70.6,30.00,NE,52,0.0,0.0,90,0.00,,,0.00,LWC V2.00 B2112,2013-08-07 00:35:00,
2013-08-06 20:40:00,73.5,70.7,30.00,NE,52,0.0,0.0,91,0.00,,,0.00,LWC V2.00 B2112,2013-08-07 00:40:00,
2013-08-06 20:45:00,73.3,70.5,30.00,NE,52,0.0,0.0,91,0.00,,,0.00,LWC V2.00 B2112,2013-08-07 00:45:00,
2013-08-06 20:50:00,73.0,70.2,30.00,NE,52,0.0,0.0,91,0.00,,,0.00,LWC V2.00 B2112,2013-08-07 00:50:00,
2013-08-06 20:55:00,72.8,70.0,30.00,NE,52,0.0,0.0,91,0.00,,,0.00,LWC V2.00 B2112,2013-08-07 00:55:00,
2013-08-06 21:00:00,72.7,69.9,30.00,NE,52,0.0,0.0,91,0.00,,,0.00,LWC V2.00 B2112,2013-08-07 01:00:00,
2013-08-06 21:05:00,72.5,70.0,30.00,NE,52,0.0,0.0,92,0.00,,,0.00,LWC V2.00 B2112,2013-08-07 01:05:00,
2013-08-06 21:10:00,72.5,70.0,30.00,NE,52,0.0,0.0,92,0.00,,,0.00,LWC V2.00 B2112,2013-08-07 01:10:00,
2013-08-06 21:15:00,72.3,69.8,30.00,NE,52,0.0,0.0,92,0.00,,,0.00,LWC V2.00 B2112,2013-08-07 01:15:00,
2013-08-06 21:20:00,72.1,69.6,30.00,NE,52,0.0,0.0,92,0.00,,,0.00,LWC V2.00 B2112,2013-08-07 01:20:00,
2013-08-06 21:25:00,72.0,69.5,30.00,NE,52,0.0,0.0,92,0.00,,,0.00,LWC V2.00 B2112,2013-08-07 01:25:00,
2013-08-06 21:30:00,71.8,69.3,30.00,NE,52,0.0,0.0,92,0.00,,,0.00,LWC V2.00 B2112,2013-08-07 01:30:00,
2013-08-06 21:35:00,71.8,69.3,30.00,NE,52,0.0,0.0,92,0.00,,,0.00,LWC V2.00 B2112,2013-08-07 01:35:00,
2013-08-06 21:40:00,71.6,69.1,30.00,NE,52,0.0,0.0,92,0.00,,,0.00,LWC V2.00 B2112,2013-08-07 01:40:00,
2013-08-06 21:45:00,71.5,69.0,30.00,NE,52,0.0,0.0,92,0.00,,,0.00,LWC V2.00 B2112,2013-08-07 01:45:00,
2013-08-06 21:50:00,71.3,68.8,30.00,NE,52,0.0,0.0,92,0.00,,,0.00,LWC V2.00 B2112,2013-08-07 01:50:00,
2013-08-06 21:55:00,71.1,68.7,30.00,NE,52,0.0,0.0,92,0.00,,,0.00,LWC V2.00 B2112,2013-08-07 01:55:00,
2013-08-06 22:00:00,71.1,68.7,30.01,NE,52,0.0,0.0,92,0.00,,,0.00,LWC V2.00 B2112,2013-08-07 02:00:00,
2013-08-06 22:05:00,70.9,68.5,30.01,NE,52,0.0,0.0,92,0.00,,,0.00,LWC V2.00 B2112,2013-08-07 02:05:00,
2013-08-06 22:10:00,70.8,68.4,30.01,NE,52,0.0,0.0,92,0.00,,,0.00,LWC V2.00 B2112,2013-08-07 02:10:00,
2013-08-06 22:15:00,70.8,68.4,30.01,NE,52,0.0,0.0,92,0.00,,,0.00,LWC V2.00 B2112,2013-08-07 02:15:00,
2013-08-06 22:20:00,70.6,68.5,30.01,NE,52,0.0,0.0,93,0.00,,,0.00,LWC V2.00 B2112,2013-08-07 02:20:00,
2013-08-06 22:25:00,70.4,68.3,30.01,NE,52,0.0,0.0,93,0.00,,,0.00,LWC V2.00 B2112,2013-08-07 02:25:00,
2013-08-06 22:30:00,70.4,68.3,30.01,NE,52,0.0,0.0,93,0.00,,,0.00,LWC V2.00 B2112,2013-08-07 02:30:00,
2013-08-06 22:35:00,70.4,68.3,30.01,NE,52,0.0,0.0,93,0.00,,,0.00,LWC V2.00 B2112,2013-08-07 02:35:00,
2013-08-06 22:40:00,70.3,68.2,30.01,NE,52,0.0,0.0,93,0.00,,,0.00,LWC V2.00 B2112,2013-08-07 02:40:00,
2013-08-06 22:45:00,70.3,68.2,30.01,NE,52,0.0,0.0,93,0.00,,,0.00,LWC V2.00 B2112,2013-08-07 02:45:00,
2013-08-06 22:50:00,70.1,68.0,30.01,NE,52,0.0,0.0,93,0.00,,,0.00,LWC V2.00 B2112,2013-08-07 02:50:00,
2013-08-06 22:55:00,70.1,68.0,30.01,NE,52,0.0,0.0,93,0.00,,,0.00,LWC V2.00 B2112,2013-08-07 02:55:00,
2013-08-06 23:00:00,69.9,67.8,30.02,NE,52,0.0,0.0,93,0.00,,,0.00,LWC V2.00 B2112,2013-08-07 03:00:00,
2013-08-06 23:05:00,69.9,67.8,30.02,NE,52,0.0,0.0,93,0.00,,,0.00,LWC V2.00 B2112,2013-08-07 03:05:00,
2013-08-06 23:10:00,69.8,67.7,30.02,NE,52,0.0,0.0,93,0.00,,,0.00,LWC V2.00 B2112,2013-08-07 03:10:00,
2013-08-06 23:15:00,69.8,68.0,30.02,NE,52,0.0,0.0,94,0.00,,,0.00,LWC V2.00 B2112,2013-08-07 03:15:00,
2013-08-06 23:20:00,69.6,67.8,30.02,NE,52,0.0,0.0,94,0.00,,,0.00,LWC V2.00 B2112,2013-08-07 03:20:00,
2013-08-06 23:25:00,69.6,67.8,30.02,NE,52,0.0,0.0,94,0.00,,,0.00,LWC V2.00 B2112,2013-08-07 03:25:00,
2013-08-06 23:30:00,69.4,67.6,30.02,NE,52,0.0,0.0,94,0.00,,,0.00,LWC V2.00 B2112,2013-08-07 03:30:00,
2013-08-06 23:35:00,69.4,67.6,30.02,NE,52,0.0,0.0,94,0.00,,,0.00,LWC V2.00 B2112,2013-08-07 03:35:00,
2013-08-06 23:40:00,69.3,67.5,30.02,NE,52,0.0,0.0,94,0.00,,,0.00,LWC V2.00 B2112,2013-08-07 03:40:00,
2013-08-06 23:45:00,69.3,67.5,30.02,NE,52,0.0,0.0,94,0.00,,,0.00,LWC V2.00 B2112,2013-08-07 03:45:00,
2013-08-06 23:50:00,69.1,67.3,30.02,NE,52,0.0,0.0,94,0.00,,,0.00,LWC V2.00 B2112,2013-08-07 03:50:00,
2013-08-06 23:55:00,69.1,67.3,30.02,NE,52,0.0,0.0,94,0.00,,,0.00,LWC V2.00 B2112,2013-08-07 03:55:00,